• Join FlightAware (Why Join?)
  • Login
  • US Flag 
09:40AM EDT


 

Airport Tracker/Info


-or-


 

Live Flight TrackerFlight Track Log ✈ UCA3597 ✈ 24.09.2013 ✈ KBGM - KIAD

Flight Track Log - Related Links

Times and Time Zones

All times are in EDT time to prevent confusion due to time zone crossing. See the UCA3597 flight status page for this flight to view local times or setup timezone preferences in your user account.

Time Position Orientation Groundspeed Altitude Reporting Facility
EDT Latitude Longitude Course Direction KTS MPH feet Rate Location/Type
07:21PM 42.2281 -76.0161 211° Southwest 122 140 3,200  Level New York Center
07:22PM 42.1972 -76.0528 221° Southwest 133 153 4,600 1,380 Climbing New York Center
07:23PM 42.1497 -76.0908 211° Southwest 156 180 6,000 1,380 Climbing New York Center
07:24PM 42.1022 -76.1317 213° Southwest 192 221 7,400 1,500 Climbing New York Center
07:25PM 42.0458 -76.1803 213° Southwest 218 251 9,000 1,440 Climbing New York Center
07:26PM 41.7491 -76.1977 211° Southwest  Level Estimated
07:26PM 41.9958 -76.2236 213° Southwest 218 251 10,400  Level New York Center
07:27PM 41.9461 -76.2642 211° Southwest 218 251 11,700 1,200 Climbing New York Center
07:29PM 41.8508 -76.3481 213° Southwest 218 251 14,100 1,200 Climbing New York Center
07:30PM 41.7967 -76.3908 210° Southwest 218 251 15,300 840 Climbing New York Center
07:31PM 41.7358 -76.4442 213° Southwest 228 262 15,900 240 Climbing New York Center
07:32PM 41.6731 -76.4944 211° Southwest 257 296 15,900  Level New York Center
07:33PM 41.6058 -76.5053 187° South 280 322 16,000  Climbing New York Center
07:35PM 41.4372 -76.4606 169° South 293 337 16,000  Level New York Center
07:36PM 41.3586 -76.4456 172° South 293 337 16,000  Level New York Center
07:37PM 41.2944 -76.4817 203° Southwest 277 319 16,000 -60 Level New York Center
07:38PM 41.2242 -76.5142 199° South 283 326 15,900 -60 Descending New York Center
07:39PM 41.1453 -76.5517 200° South 278 320 15,900  Level New York Center
07:40PM 41.0728 -76.5867 200° South 278 320 16,000  Climbing New York Center
07:41PM 41.0025 -76.6167 198° South 278 320 16,000  Level New York Center
07:42PM 40.9319 -76.6544 202° Southwest 278 320 16,000  Level New York Center
07:43PM 40.8700 -76.6819 199° South 278 320 16,000  Level New York Center
07:44PM 40.7889 -76.7189 199° South 278 320 16,000  Level New York Center
07:45PM 40.7269 -76.7492 200° South 278 320 16,000  Level New York Center
07:46PM 40.6481 -76.7861 200° South 273 314 16,000  Level New York Center
07:47PM 40.5778 -76.8181 199° South 273 314 16,000 -60 Level New York Center
07:48PM 40.5136 -76.8481 200° South 273 314 15,900  Descending New York Center
07:49PM 40.4325 -76.8844 199° South 273 314 16,000  Climbing New York Center
07:50PM 40.3622 -76.9136 198° South 273 314 16,000  Level New York Center
07:51PM 40.2894 -76.9508 201° Southwest 273 314 16,000 -120 Level New York Center
07:52PM 40.2272 -76.9806 200° South 273 314 15,800 -660 Descending New York Center
07:53PM 40.1442 -77.0167 198° South 279 321 14,800 -1,080 Descending New York Center
07:54PM 40.0672 -77.0506 199° South 290 334 13,700 -900 Descending New York Center
07:56PM 39.9000 -77.1167 197° South 290 334 12,000 -780 Descending Potomac TRACON
07:57PM 39.8333 -77.1667 210° Southwest 290 334 11,300 -720 Descending Potomac TRACON
07:58PM 39.7667 -77.1833 191° South 285 328 10,700 -720 Descending Potomac TRACON
07:59PM 39.6833 -77.2333 205° Southwest 278 320 9,900 -720 Descending Potomac TRACON
08:00PM 39.6333 -77.3000 226° Southwest 276 318 9,300 -720 Descending Potomac TRACON
08:01PM 39.5667 -77.3167 191° South 278 320 8,600 -900 Descending Potomac TRACON
08:02PM 39.4833 -77.3500 197° South 273 314 7,500 -840 Descending Potomac TRACON
08:03PM 39.4167 -77.3667 191° South 265 305 7,000 -780 Descending Potomac TRACON
08:04PM 39.3500 -77.3667 180° South 269 310 6,000 -1,020 Descending Potomac TRACON
08:05PM 39.2667 -77.3667 180° South 265 305 5,000 -960 Descending Potomac TRACON
08:05PM 39.2000 -77.3667 180° South 259 298 4,200 -540 Descending Potomac TRACON
08:06PM 39.1333 -77.3500 169° South 257 296 4,000 -120 Descending Potomac TRACON
08:07PM 39.0667 -77.3500 180° South 253 291 4,000  Level Potomac TRACON
08:08PM 39.0000 -77.3500 180° South 253 291 4,000 -300 Level Potomac TRACON
08:10PM 38.9167 -77.3500 180° South 262 302 3,400 -480 Descending Potomac TRACON
08:11PM 38.8500 -77.3500 180° South 232 267 3,000 -240 Descending Potomac TRACON
08:11PM 38.8000 -77.3667 195° South 227 261 3,000  Level Potomac TRACON
08:12PM 38.7833 -77.4167 247° West 203 234 3,000 -480 Level Potomac TRACON
08:13PM 38.8333 -77.4333 345° North 166 191 2,100 -900 Descending Potomac TRACON
08:14PM 38.8833 -77.4333 360° North 145 167 1,300 -780 Descending Potomac TRACON
08:15PM 38.9167 -77.4333 360° North 114 131 600 -720 Descending Potomac TRACON
08:17PM 38.9333 -77.4500 349° North  Level FlightAware Approximate
08:24PM 38.9474 -77.4599 349° North  Level Estimated
08:25PM 38.9474 -77.4599 349° North  Level Estimated